createdAt,value
2022-11-29T00:02:28.248Z,27.98
2022-11-29T00:07:29.912Z,32.97
2022-11-29T00:12:31.507Z,31.55
2022-11-29T00:17:32.995Z,31.15
2022-11-29T00:22:34.533Z,33.55
2022-11-29T00:27:36.099Z,30.33
2022-11-29T00:32:37.633Z,35.63
2022-11-29T00:37:39.138Z,35.58
2022-11-29T00:42:40.702Z,31.40
2022-11-29T00:47:42.229Z,32.22
2022-11-29T00:52:43.750Z,33.00
2022-11-29T00:57:45.276Z,33.15
2022-11-29T01:02:46.823Z,37.33
2022-11-29T01:07:48.445Z,27.75
2022-11-29T01:12:50.034Z,33.03
2022-11-29T01:17:51.557Z,33.03
2022-11-29T01:22:53.199Z,28.25
2022-11-29T01:27:54.791Z,30.33
2022-11-29T01:32:56.267Z,28.77
2022-11-29T01:37:57.780Z,29.60
2022-11-29T01:42:59.297Z,30.38
2022-11-29T01:48:01.157Z,25.17
2022-11-29T01:53:03.351Z,24.60
2022-11-29T01:58:07.921Z,26.63
2022-11-29T02:03:15.433Z,25.52
2022-11-29T02:08:23.062Z,26.17
2022-11-29T02:13:30.666Z,23.67
2022-11-29T02:18:48.824Z,21.05
2022-11-29T02:24:05.237Z,26.27
2022-11-29T02:29:34.240Z,24.75
2022-11-29T02:35:01.633Z,24.02
2022-11-29T02:40:03.070Z,25.88
2022-11-29T02:45:25.791Z,25.02
2022-11-29T02:50:48.980Z,23.52
2022-11-29T02:56:05.888Z,24.90
2022-11-29T03:01:30.415Z,18.52
2022-11-29T03:06:45.735Z,23.05
2022-11-29T03:11:51.987Z,21.02
2022-11-29T03:17:04.018Z,24.52
2022-11-29T03:22:11.633Z,22.60
2022-11-29T03:27:21.169Z,22.55
2022-11-29T03:32:56.875Z,22.65
2022-11-29T03:38:13.389Z,24.20
2022-11-29T03:43:23.581Z,17.55
2022-11-29T03:48:49.153Z,39.50
2022-11-29T03:53:52.747Z,33.53
2022-11-29T03:59:24.495Z,39.15
2022-11-29T04:04:47.751Z,38.85
2022-11-29T04:10:21.749Z,41.33
2022-11-29T04:15:58.026Z,40.40
2022-11-29T04:21:13.511Z,44.53
2022-11-29T04:26:30.892Z,47.55
2022-11-29T04:31:52.823Z,44.78
2022-11-29T04:37:25.975Z,58.35
2022-11-29T04:42:46.050Z,55.50
2022-11-29T04:48:33.362Z,64.63
2022-11-29T04:53:41.042Z,70.97
2022-11-29T04:59:09.934Z,85.00
2022-11-29T05:04:22.077Z,82.93
2022-11-29T05:09:45.472Z,82.65
2022-11-29T05:15:16.173Z,92.65
2022-11-29T05:20:44.268Z,108.65
2022-11-29T05:26:10.454Z,101.78
2022-11-29T05:31:57.020Z,109.10
2022-11-29T05:37:10.673Z,114.20
2022-11-29T05:42:31.047Z,97.32
2022-11-29T05:47:49.172Z,113.47
2022-11-29T05:53:21.608Z,98.57
2022-11-29T05:58:47.496Z,103.13
2022-11-29T06:04:06.245Z,121.70
2022-11-29T06:09:19.259Z,103.43
2022-11-29T06:15:04.587Z,101.00
2022-11-29T06:20:39.973Z,97.22
2022-11-29T06:26:04.239Z,90.60
2022-11-29T06:31:27.914Z,94.90
2022-11-29T06:36:53.469Z,91.35
2022-11-29T06:41:55.001Z,93.38
2022-11-29T06:47:10.448Z,88.93
2022-11-29T06:52:17.830Z,97.50
2022-11-29T06:57:59.246Z,101.10
2022-11-29T07:03:32.912Z,114.00
2022-11-29T07:08:34.792Z,129.90
2022-11-29T07:13:36.616Z,139.82
2022-11-29T07:18:53.721Z,148.52
2022-11-29T07:24:03.986Z,163.93
2022-11-29T07:29:12.124Z,139.40
2022-11-29T07:34:33.863Z,156.10
2022-11-29T07:39:42.596Z,153.02
2022-11-29T07:44:50.963Z,158.82
2022-11-29T07:49:52.572Z,174.32
2022-11-29T07:54:54.192Z,178.40
2022-11-29T07:59:55.707Z,164.15
2022-11-29T08:04:57.762Z,167.30
2022-11-29T08:09:59.402Z,151.15
2022-11-29T08:15:01.590Z,151.15
2022-11-29T08:20:04.464Z,186.77
2022-11-29T08:25:07.253Z,175.57
2022-11-29T08:30:09.088Z,173.90
2022-11-29T08:35:10.760Z,163.43
2022-11-29T08:40:12.667Z,150.25
2022-11-29T08:45:14.202Z,162.70
2022-11-29T08:50:17.870Z,139.45
2022-11-29T08:55:21.462Z,152.02
2022-11-29T09:00:23.191Z,147.50
2022-11-29T09:05:24.799Z,146.52
2022-11-29T09:10:26.393Z,138.77
2022-11-29T09:15:27.928Z,136.75
2022-11-29T09:20:29.534Z,113.55
2022-11-29T09:25:31.086Z,113.97
2022-11-29T09:30:33.173Z,101.28
2022-11-29T09:35:34.789Z,91.07
2022-11-29T09:40:57.360Z,99.53
2022-11-29T09:46:19.887Z,92.90
2022-11-29T09:51:46.398Z,65.85
2022-11-29T09:56:51.668Z,74.77
2022-11-29T10:01:57.161Z,70.60
2022-11-29T10:07:20.194Z,77.00
2022-11-29T10:12:37.484Z,62.63
2022-11-29T10:17:44.950Z,66.25
2022-11-29T10:23:02.293Z,62.83
2022-11-29T10:28:08.944Z,66.97
2022-11-29T10:38:34.757Z,65.50
2022-11-29T10:48:38.432Z,61.33
2022-11-29T10:53:40.090Z,44.78
2022-11-29T10:59:02.511Z,49.88
2022-11-29T11:04:05.694Z,50.67
2022-11-29T11:09:20.771Z,45.95
2022-11-29T11:14:32.079Z,49.47
2022-11-29T11:19:34.628Z,45.88
2022-11-29T11:24:41.007Z,51.20
2022-11-29T11:29:44.748Z,50.88
2022-11-29T11:35:21.430Z,56.13
2022-11-29T11:40:28.982Z,36.20
2022-11-29T11:45:35.926Z,50.65
2022-11-29T11:55:53.268Z,47.15
2022-11-29T12:01:05.840Z,45.03
2022-11-29T12:06:43.931Z,38.13
2022-11-29T12:11:56.741Z,42.83
2022-11-29T12:17:43.715Z,41.53
2022-11-29T12:22:51.207Z,20.63
2022-11-29T12:27:53.034Z,33.72
2022-11-29T12:33:03.600Z,34.90
2022-11-29T12:38:40.778Z,36.30
2022-11-29T12:43:53.032Z,33.17
2022-11-29T12:49:16.913Z,38.15
2022-11-29T12:54:40.287Z,43.58
2022-11-29T12:59:53.946Z,39.08
2022-11-29T13:05:23.004Z,39.13
2022-11-29T13:10:24.516Z,39.58
2022-11-29T13:15:50.616Z,38.08
2022-11-29T13:20:55.987Z,35.17
2022-11-29T13:26:00.729Z,38.05
2022-11-29T13:31:08.406Z,43.35
2022-11-29T13:36:22.065Z,43.92
2022-11-29T13:41:54.811Z,43.53
2022-11-29T13:47:09.849Z,59.08
2022-11-29T13:52:39.448Z,47.35
2022-11-29T14:03:23.389Z,54.13
2022-11-29T14:08:54.648Z,55.78
2022-11-29T14:14:08.769Z,56.40
2022-11-29T14:19:10.265Z,51.97
2022-11-29T14:24:33.534Z,49.70
2022-11-29T14:29:50.271Z,56.75
2022-11-29T14:35:11.993Z,46.42
2022-11-29T14:40:25.374Z,49.28
2022-11-29T14:45:32.949Z,50.50
2022-11-29T14:50:40.391Z,42.83
2022-11-29T14:55:41.989Z,58.60
2022-11-29T15:00:53.977Z,47.72
2022-11-29T15:05:59.788Z,48.42
2022-11-29T15:11:25.724Z,56.97
2022-11-29T15:16:27.236Z,51.78
2022-11-29T15:21:28.739Z,65.22
2022-11-29T15:26:30.286Z,54.47
2022-11-29T15:31:31.953Z,53.58
2022-11-29T15:36:33.569Z,60.65
2022-11-29T15:41:35.267Z,59.00
2022-11-29T15:46:36.889Z,71.55
2022-11-29T15:51:39.428Z,65.53
2022-11-29T15:56:43.902Z,72.35
2022-11-29T16:01:48.291Z,60.05
2022-11-29T16:06:50.547Z,66.78
2022-11-29T16:11:52.218Z,59.58
2022-11-29T16:16:57.005Z,57.47
2022-11-29T16:22:22.969Z,57.33
2022-11-29T16:27:24.754Z,62.83
2022-11-29T16:32:32.487Z,67.50
2022-11-29T16:37:43.963Z,67.18
2022-11-29T16:43:06.751Z,65.28
2022-11-29T16:48:23.194Z,69.63
2022-11-29T16:53:39.630Z,56.95
2022-11-29T16:59:21.095Z,65.68
2022-11-29T17:04:04.680Z,75.78
2022-11-29T17:09:06.530Z,85.15
2022-11-29T17:14:08.409Z,77.45
2022-11-29T17:19:12.466Z,93.93
2022-11-29T17:24:17.327Z,102.25
2022-11-29T17:29:18.978Z,94.28
2022-11-29T17:34:21.000Z,100.60
2022-11-29T17:39:22.516Z,107.35
2022-11-29T17:44:24.068Z,110.18
2022-11-29T17:49:25.749Z,100.15
2022-11-29T17:54:27.351Z,116.55
2022-11-29T17:59:28.837Z,118.30
2022-11-29T18:04:30.449Z,128.68
2022-11-29T18:09:32.023Z,130.88
2022-11-29T18:14:33.752Z,116.30
2022-11-29T18:19:35.334Z,116.00
2022-11-29T18:24:36.889Z,120.50
2022-11-29T18:29:39.410Z,121.43
2022-11-29T18:34:41.032Z,116.50
2022-11-29T18:39:42.506Z,116.63
2022-11-29T18:44:44.566Z,108.68
2022-11-29T18:49:46.375Z,88.40
2022-11-29T18:54:48.061Z,106.63
2022-11-29T18:59:49.664Z,93.32
2022-11-29T19:04:51.180Z,107.35
2022-11-29T19:09:52.787Z,90.38
2022-11-29T19:14:54.595Z,92.95
2022-11-29T19:19:56.525Z,88.53
2022-11-29T19:24:58.070Z,95.53
2022-11-29T19:29:59.626Z,90.05
2022-11-29T19:35:01.239Z,94.70
2022-11-29T19:40:03.038Z,80.65
2022-11-29T19:45:20.894Z,95.65
2022-11-29T19:50:22.439Z,91.88
2022-11-29T19:55:23.969Z,103.97
2022-11-29T20:00:25.549Z,102.40
2022-11-29T20:05:27.066Z,96.53
2022-11-29T20:10:28.716Z,104.20
2022-11-29T20:15:30.709Z,93.85
2022-11-29T20:20:33.477Z,98.43
2022-11-29T20:25:34.993Z,94.32
2022-11-29T20:30:36.640Z,89.32
2022-11-29T20:35:38.687Z,96.05
2022-11-29T20:41:04.215Z,98.75
2022-11-29T20:46:06.072Z,98.65
2022-11-29T20:51:10.305Z,85.47
2022-11-29T20:56:12.254Z,90.90
2022-11-29T21:01:13.827Z,89.25
2022-11-29T21:06:15.473Z,87.47
2022-11-29T21:11:17.355Z,95.15
2022-11-29T21:16:29.718Z,93.40
2022-11-29T21:21:42.007Z,88.82
2022-11-29T21:26:51.458Z,84.68
2022-11-29T21:31:54.290Z,76.43
2022-11-29T21:36:58.943Z,91.22
2022-11-29T21:42:06.133Z,75.03
2022-11-29T21:47:07.857Z,84.93
2022-11-29T21:52:09.496Z,73.97
2022-11-29T21:57:12.066Z,79.22
2022-11-29T22:02:14.130Z,78.15
2022-11-29T22:07:16.280Z,71.63
2022-11-29T22:12:33.715Z,77.35
2022-11-29T22:17:36.071Z,69.57
2022-11-29T22:22:37.671Z,71.18
2022-11-29T22:27:39.303Z,78.50
2022-11-29T22:32:40.931Z,73.50
2022-11-29T22:37:42.578Z,72.38
2022-11-29T22:42:44.236Z,75.00
2022-11-29T22:47:45.845Z,79.97
2022-11-29T22:52:48.716Z,76.75
2022-11-29T22:57:52.778Z,76.97
2022-11-29T23:02:57.390Z,80.72
2022-11-29T23:07:59.821Z,84.05
2022-11-29T23:13:01.476Z,81.85
2022-11-29T23:18:03.288Z,84.50
2022-11-29T23:23:05.090Z,83.85
2022-11-29T23:28:06.778Z,95.30
2022-11-29T23:33:10.078Z,71.30
2022-11-29T23:38:11.771Z,73.43
2022-11-29T23:43:13.404Z,82.85
2022-11-29T23:48:15.005Z,70.35
2022-11-29T23:53:18.656Z,82.53
2022-11-29T23:58:20.263Z,75.50
